sensor_id;sensor_type;location;lat;lon;timestamp;P1;durP1;ratioP1;P2;durP2;ratioP2
64235;SDS011;50564;47.402;9.740;2023-02-14T00:03:14;44.60;;;23.13;;
64235;SDS011;50564;47.402;9.740;2023-02-14T00:08:15;43.72;;;23.35;;
64235;SDS011;50564;47.402;9.740;2023-02-14T00:13:16;41.67;;;22.58;;
64235;SDS011;50564;47.402;9.740;2023-02-14T00:18:16;42.25;;;22.38;;
64235;SDS011;50564;47.402;9.740;2023-02-14T00:23:17;47.78;;;24.20;;
64235;SDS011;50564;47.402;9.740;2023-02-14T00:28:17;49.95;;;24.50;;
64235;SDS011;50564;47.402;9.740;2023-02-14T00:33:18;40.50;;;22.42;;
64235;SDS011;50564;47.402;9.740;2023-02-14T00:38:19;45.85;;;24.15;;
64235;SDS011;50564;47.402;9.740;2023-02-14T00:43:19;44.92;;;23.20;;
64235;SDS011;50564;47.402;9.740;2023-02-14T00:48:20;37.15;;;20.33;;
64235;SDS011;50564;47.402;9.740;2023-02-14T00:53:21;42.22;;;22.10;;
64235;SDS011;50564;47.402;9.740;2023-02-14T00:58:21;45.95;;;24.52;;
64235;SDS011;50564;47.402;9.740;2023-02-14T01:03:22;43.65;;;23.02;;
64235;SDS011;50564;47.402;9.740;2023-02-14T01:08:24;38.58;;;20.27;;
64235;SDS011;50564;47.402;9.740;2023-02-14T01:13:25;37.05;;;20.52;;
64235;SDS011;50564;47.402;9.740;2023-02-14T01:18:25;33.90;;;20.67;;
64235;SDS011;50564;47.402;9.740;2023-02-14T01:23:26;39.75;;;21.77;;
64235;SDS011;50564;47.402;9.740;2023-02-14T01:28:27;32.00;;;18.60;;
64235;SDS011;50564;47.402;9.740;2023-02-14T01:33:27;41.08;;;22.88;;
64235;SDS011;50564;47.402;9.740;2023-02-14T01:38:28;43.05;;;23.63;;
64235;SDS011;50564;47.402;9.740;2023-02-14T01:43:29;45.08;;;25.65;;
64235;SDS011;50564;47.402;9.740;2023-02-14T01:48:29;38.45;;;21.80;;
64235;SDS011;50564;47.402;9.740;2023-02-14T01:53:30;43.03;;;23.42;;
64235;SDS011;50564;47.402;9.740;2023-02-14T01:58:31;40.92;;;22.10;;
64235;SDS011;50564;47.402;9.740;2023-02-14T02:03:41;44.10;;;23.73;;
64235;SDS011;50564;47.402;9.740;2023-02-14T02:08:51;38.83;;;21.92;;
64235;SDS011;50564;47.402;9.740;2023-02-14T02:14:09;48.13;;;23.27;;
64235;SDS011;50564;47.402;9.740;2023-02-14T02:24:40;44.83;;;23.35;;
64235;SDS011;50564;47.402;9.740;2023-02-14T02:46:35;48.63;;;22.10;;
64235;SDS011;50564;47.402;9.740;2023-02-14T02:51:50;40.20;;;22.20;;
64235;SDS011;50564;47.402;9.740;2023-02-14T02:57:14;40.60;;;21.88;;
64235;SDS011;50564;47.402;9.740;2023-02-14T03:39:42;34.92;;;19.25;;
64235;SDS011;50564;47.402;9.740;2023-02-14T03:44:44;36.85;;;19.88;;
64235;SDS011;50564;47.402;9.740;2023-02-14T03:49:52;35.05;;;20.15;;
64235;SDS011;50564;47.402;9.740;2023-02-14T03:54:58;31.15;;;17.38;;
64235;SDS011;50564;47.402;9.740;2023-02-14T04:00:00;34.05;;;19.23;;
64235;SDS011;50564;47.402;9.740;2023-02-14T04:05:02;32.53;;;19.00;;
64235;SDS011;50564;47.402;9.740;2023-02-14T04:10:07;35.22;;;20.33;;
64235;SDS011;50564;47.402;9.740;2023-02-14T04:15:08;40.95;;;21.23;;
64235;SDS011;50564;47.402;9.740;2023-02-14T04:20:09;34.22;;;20.00;;
64235;SDS011;50564;47.402;9.740;2023-02-14T04:25:09;37.97;;;20.48;;
64235;SDS011;50564;47.402;9.740;2023-02-14T04:30:10;38.60;;;21.38;;
64235;SDS011;50564;47.402;9.740;2023-02-14T04:35:12;40.85;;;22.98;;
64235;SDS011;50564;47.402;9.740;2023-02-14T04:40:12;34.15;;;19.40;;
64235;SDS011;50564;47.402;9.740;2023-02-14T04:45:16;38.45;;;20.63;;
64235;SDS011;50564;47.402;9.740;2023-02-14T04:50:17;33.28;;;20.30;;
64235;SDS011;50564;47.402;9.740;2023-02-14T04:55:17;30.17;;;17.65;;
64235;SDS011;50564;47.402;9.740;2023-02-14T05:00:18;22.10;;;14.07;;
64235;SDS011;50564;47.402;9.740;2023-02-14T05:05:19;25.17;;;15.75;;
64235;SDS011;50564;47.402;9.740;2023-02-14T05:10:20;28.38;;;16.40;;
64235;SDS011;50564;47.402;9.740;2023-02-14T05:15:20;26.50;;;16.15;;
64235;SDS011;50564;47.402;9.740;2023-02-14T05:20:21;29.50;;;17.00;;
64235;SDS011;50564;47.402;9.740;2023-02-14T05:25:22;30.38;;;17.05;;
64235;SDS011;50564;47.402;9.740;2023-02-14T05:30:22;31.80;;;17.05;;
64235;SDS011;50564;47.402;9.740;2023-02-14T05:35:26;33.08;;;19.55;;
64235;SDS011;50564;47.402;9.740;2023-02-14T05:40:27;34.38;;;18.65;;
64235;SDS011;50564;47.402;9.740;2023-02-14T05:45:28;36.00;;;20.27;;
64235;SDS011;50564;47.402;9.740;2023-02-14T05:50:28;35.45;;;21.45;;
64235;SDS011;50564;47.402;9.740;2023-02-14T05:55:29;32.03;;;18.38;;
64235;SDS011;50564;47.402;9.740;2023-02-14T06:00:30;31.77;;;17.80;;
64235;SDS011;50564;47.402;9.740;2023-02-14T06:05:30;36.53;;;20.63;;
64235;SDS011;50564;47.402;9.740;2023-02-14T06:10:31;29.75;;;17.40;;
64235;SDS011;50564;47.402;9.740;2023-02-14T06:15:32;35.88;;;19.48;;
64235;SDS011;50564;47.402;9.740;2023-02-14T06:20:32;36.40;;;18.30;;
64235;SDS011;50564;47.402;9.740;2023-02-14T06:25:33;32.90;;;18.13;;
64235;SDS011;50564;47.402;9.740;2023-02-14T06:30:34;29.63;;;17.83;;
64235;SDS011;50564;47.402;9.740;2023-02-14T06:35:35;37.35;;;19.50;;
64235;SDS011;50564;47.402;9.740;2023-02-14T06:40:35;37.50;;;21.52;;
64235;SDS011;50564;47.402;9.740;2023-02-14T06:45:36;37.20;;;24.10;;
64235;SDS011;50564;47.402;9.740;2023-02-14T06:50:36;30.77;;;17.55;;
64235;SDS011;50564;47.402;9.740;2023-02-14T06:55:37;32.17;;;19.75;;
64235;SDS011;50564;47.402;9.740;2023-02-14T07:00:38;31.60;;;19.75;;
64235;SDS011;50564;47.402;9.740;2023-02-14T07:05:41;32.53;;;18.63;;
64235;SDS011;50564;47.402;9.740;2023-02-14T07:10:44;30.40;;;20.02;;
64235;SDS011;50564;47.402;9.740;2023-02-14T07:15:46;28.33;;;16.10;;
64235;SDS011;50564;47.402;9.740;2023-02-14T07:20:47;25.67;;;15.20;;
64235;SDS011;50564;47.402;9.740;2023-02-14T07:25:49;28.05;;;15.52;;
64235;SDS011;50564;47.402;9.740;2023-02-14T07:36:20;28.33;;;15.52;;
64235;SDS011;50564;47.402;9.740;2023-02-14T07:41:20;26.63;;;15.02;;
64235;SDS011;50564;47.402;9.740;2023-02-14T07:46:21;31.25;;;17.25;;
64235;SDS011;50564;47.402;9.740;2023-02-14T07:51:22;30.17;;;18.63;;
64235;SDS011;50564;47.402;9.740;2023-02-14T07:56:22;33.15;;;20.25;;
64235;SDS011;50564;47.402;9.740;2023-02-14T08:01:23;31.25;;;17.13;;
64235;SDS011;50564;47.402;9.740;2023-02-14T08:06:24;27.55;;;15.70;;
64235;SDS011;50564;47.402;9.740;2023-02-14T08:11:27;29.30;;;17.83;;
64235;SDS011;50564;47.402;9.740;2023-02-14T08:16:45;38.92;;;26.50;;
64235;SDS011;50564;47.402;9.740;2023-02-14T08:21:47;30.90;;;19.88;;
64235;SDS011;50564;47.402;9.740;2023-02-14T08:26:49;30.83;;;17.65;;
64235;SDS011;50564;47.402;9.740;2023-02-14T08:31:50;31.55;;;17.45;;
64235;SDS011;50564;47.402;9.740;2023-02-14T08:36:53;32.35;;;18.17;;
64235;SDS011;50564;47.402;9.740;2023-02-14T08:41:53;29.48;;;16.73;;
64235;SDS011;50564;47.402;9.740;2023-02-14T08:46:54;27.75;;;16.65;;
64235;SDS011;50564;47.402;9.740;2023-02-14T08:51:55;29.55;;;16.98;;
64235;SDS011;50564;47.402;9.740;2023-02-14T08:56:55;29.70;;;17.85;;
64235;SDS011;50564;47.402;9.740;2023-02-14T09:01:56;27.48;;;16.75;;
64235;SDS011;50564;47.402;9.740;2023-02-14T09:06:58;27.65;;;16.42;;
64235;SDS011;50564;47.402;9.740;2023-02-14T09:12:02;28.85;;;18.13;;
64235;SDS011;50564;47.402;9.740;2023-02-14T09:17:04;32.88;;;18.88;;
64235;SDS011;50564;47.402;9.740;2023-02-14T09:22:05;29.95;;;17.48;;
64235;SDS011;50564;47.402;9.740;2023-02-14T09:27:07;28.55;;;17.60;;
64235;SDS011;50564;47.402;9.740;2023-02-14T09:32:08;30.65;;;18.15;;
64235;SDS011;50564;47.402;9.740;2023-02-14T09:37:09;33.42;;;18.88;;
64235;SDS011;50564;47.402;9.740;2023-02-14T09:52:30;29.88;;;17.42;;
64235;SDS011;50564;47.402;9.740;2023-02-14T10:08:10;32.58;;;19.42;;
64235;SDS011;50564;47.402;9.740;2023-02-14T10:13:42;40.92;;;24.40;;
64235;SDS011;50564;47.402;9.740;2023-02-14T10:18:51;43.90;;;26.73;;
64235;SDS011;50564;47.402;9.740;2023-02-14T10:29:15;31.15;;;18.05;;
64235;SDS011;50564;47.402;9.740;2023-02-14T11:01:23;34.50;;;19.52;;
64235;SDS011;50564;47.402;9.740;2023-02-14T11:06:14;38.60;;;23.42;;
64235;SDS011;50564;47.402;9.740;2023-02-14T11:12:01;36.60;;;20.85;;
64235;SDS011;50564;47.402;9.740;2023-02-14T11:16:37;35.45;;;18.20;;
64235;SDS011;50564;47.402;9.740;2023-02-14T11:21:39;30.73;;;18.25;;
64235;SDS011;50564;47.402;9.740;2023-02-14T11:26:44;32.20;;;19.02;;
64235;SDS011;50564;47.402;9.740;2023-02-14T11:31:47;26.92;;;16.65;;
64235;SDS011;50564;47.402;9.740;2023-02-14T11:36:47;33.28;;;16.83;;
64235;SDS011;50564;47.402;9.740;2023-02-14T11:41:49;29.70;;;16.75;;
64235;SDS011;50564;47.402;9.740;2023-02-14T11:46:52;34.95;;;17.75;;
64235;SDS011;50564;47.402;9.740;2023-02-14T11:51:55;31.85;;;19.80;;
64235;SDS011;50564;47.402;9.740;2023-02-14T12:02:28;35.00;;;19.80;;
64235;SDS011;50564;47.402;9.740;2023-02-14T12:07:36;33.80;;;19.42;;
64235;SDS011;50564;47.402;9.740;2023-02-14T12:12:39;34.90;;;20.58;;
64235;SDS011;50564;47.402;9.740;2023-02-14T12:23:34;34.40;;;20.08;;
64235;SDS011;50564;47.402;9.740;2023-02-14T12:28:44;39.05;;;21.55;;
64235;SDS011;50564;47.402;9.740;2023-02-14T12:33:48;39.25;;;22.13;;
64235;SDS011;50564;47.402;9.740;2023-02-14T12:39:02;35.60;;;20.13;;
64235;SDS011;50564;47.402;9.740;2023-02-14T12:44:20;39.95;;;21.70;;
64235;SDS011;50564;47.402;9.740;2023-02-14T13:05:13;39.00;;;22.10;;
64235;SDS011;50564;47.402;9.740;2023-02-14T13:15:47;46.03;;;21.50;;
64235;SDS011;50564;47.402;9.740;2023-02-14T13:20:58;41.78;;;23.65;;
64235;SDS011;50564;47.402;9.740;2023-02-14T13:26:15;42.67;;;23.05;;
64235;SDS011;50564;47.402;9.740;2023-02-14T13:31:18;41.75;;;22.65;;
64235;SDS011;50564;47.402;9.740;2023-02-14T13:36:19;68.40;;;38.35;;
64235;SDS011;50564;47.402;9.740;2023-02-14T13:41:20;51.15;;;29.45;;
64235;SDS011;50564;47.402;9.740;2023-02-14T13:52:04;40.17;;;21.42;;
64235;SDS011;50564;47.402;9.740;2023-02-14T13:57:22;39.28;;;22.00;;
64235;SDS011;50564;47.402;9.740;2023-02-14T14:07:27;41.90;;;22.92;;
64235;SDS011;50564;47.402;9.740;2023-02-14T14:17:39;46.78;;;25.05;;
64235;SDS011;50564;47.402;9.740;2023-02-14T14:22:46;45.83;;;23.75;;
64235;SDS011;50564;47.402;9.740;2023-02-14T14:27:51;46.97;;;24.33;;
64235;SDS011;50564;47.402;9.740;2023-02-14T14:32:52;55.95;;;28.63;;
64235;SDS011;50564;47.402;9.740;2023-02-14T14:37:54;43.45;;;23.38;;
64235;SDS011;50564;47.402;9.740;2023-02-14T14:42:58;52.00;;;25.52;;
64235;SDS011;50564;47.402;9.740;2023-02-14T14:48:10;45.47;;;23.55;;
64235;SDS011;50564;47.402;9.740;2023-02-14T14:58:43;44.92;;;24.50;;
64235;SDS011;50564;47.402;9.740;2023-02-14T15:03:44;46.97;;;25.35;;
64235;SDS011;50564;47.402;9.740;2023-02-14T15:08:45;55.15;;;28.40;;
64235;SDS011;50564;47.402;9.740;2023-02-14T15:13:48;56.72;;;28.13;;
64235;SDS011;50564;47.402;9.740;2023-02-14T15:18:54;64.00;;;36.28;;
64235;SDS011;50564;47.402;9.740;2023-02-14T15:23:57;51.75;;;26.95;;
64235;SDS011;50564;47.402;9.740;2023-02-14T15:28:59;70.68;;;37.83;;
64235;SDS011;50564;47.402;9.740;2023-02-14T15:34:06;55.88;;;26.15;;
64235;SDS011;50564;47.402;9.740;2023-02-14T15:39:09;55.63;;;30.15;;
64235;SDS011;50564;47.402;9.740;2023-02-14T15:44:19;54.33;;;27.77;;
64235;SDS011;50564;47.402;9.740;2023-02-14T15:49:21;57.13;;;28.90;;
64235;SDS011;50564;47.402;9.740;2023-02-14T15:54:36;59.90;;;29.48;;
64235;SDS011;50564;47.402;9.740;2023-02-14T15:59:38;55.67;;;28.05;;
64235;SDS011;50564;47.402;9.740;2023-02-14T16:04:41;59.13;;;29.15;;
64235;SDS011;50564;47.402;9.740;2023-02-14T16:09:42;60.15;;;30.77;;
64235;SDS011;50564;47.402;9.740;2023-02-14T16:14:44;59.03;;;29.63;;
64235;SDS011;50564;47.402;9.740;2023-02-14T16:19:45;60.42;;;30.25;;
64235;SDS011;50564;47.402;9.740;2023-02-14T16:24:47;52.50;;;27.30;;
64235;SDS011;50564;47.402;9.740;2023-02-14T16:29:48;58.22;;;29.52;;
64235;SDS011;50564;47.402;9.740;2023-02-14T16:34:50;57.83;;;30.35;;
64235;SDS011;50564;47.402;9.740;2023-02-14T16:39:51;59.85;;;29.67;;
64235;SDS011;50564;47.402;9.740;2023-02-14T16:44:53;63.35;;;32.63;;
64235;SDS011;50564;47.402;9.740;2023-02-14T16:49:54;68.22;;;37.13;;
64235;SDS011;50564;47.402;9.740;2023-02-14T16:54:56;67.97;;;34.22;;
64235;SDS011;50564;47.402;9.740;2023-02-14T16:59:57;59.65;;;32.45;;
64235;SDS011;50564;47.402;9.740;2023-02-14T17:04:58;52.00;;;28.38;;
64235;SDS011;50564;47.402;9.740;2023-02-14T17:10:00;55.47;;;29.38;;
64235;SDS011;50564;47.402;9.740;2023-02-14T17:15:07;59.72;;;30.40;;
64235;SDS011;50564;47.402;9.740;2023-02-14T17:20:12;52.85;;;28.13;;
64235;SDS011;50564;47.402;9.740;2023-02-14T17:25:14;54.25;;;28.83;;
64235;SDS011;50564;47.402;9.740;2023-02-14T17:30:15;65.47;;;31.48;;
64235;SDS011;50564;47.402;9.740;2023-02-14T17:35:17;59.10;;;30.67;;
64235;SDS011;50564;47.402;9.740;2023-02-14T17:40:18;65.55;;;30.23;;
64235;SDS011;50564;47.402;9.740;2023-02-14T17:45:20;56.08;;;28.75;;
64235;SDS011;50564;47.402;9.740;2023-02-14T17:50:22;65.88;;;33.05;;
64235;SDS011;50564;47.402;9.740;2023-02-14T17:55:23;61.55;;;30.75;;
64235;SDS011;50564;47.402;9.740;2023-02-14T18:00:24;52.30;;;29.08;;
64235;SDS011;50564;47.402;9.740;2023-02-14T18:05:25;62.72;;;31.92;;
64235;SDS011;50564;47.402;9.740;2023-02-14T18:10:26;49.35;;;26.13;;
64235;SDS011;50564;47.402;9.740;2023-02-14T18:15:27;50.13;;;26.67;;
64235;SDS011;50564;47.402;9.740;2023-02-14T18:20:30;42.00;;;22.83;;
64235;SDS011;50564;47.402;9.740;2023-02-14T18:25:34;47.58;;;28.30;;
64235;SDS011;50564;47.402;9.740;2023-02-14T18:30:37;50.47;;;26.90;;
64235;SDS011;50564;47.402;9.740;2023-02-14T18:35:38;52.45;;;30.00;;
64235;SDS011;50564;47.402;9.740;2023-02-14T18:40:41;65.13;;;31.15;;
64235;SDS011;50564;47.402;9.740;2023-02-14T18:45:42;65.35;;;31.75;;
64235;SDS011;50564;47.402;9.740;2023-02-14T18:50:43;68.93;;;31.50;;
64235;SDS011;50564;47.402;9.740;2023-02-14T18:55:46;67.60;;;33.92;;
64235;SDS011;50564;47.402;9.740;2023-02-14T19:00:48;56.10;;;32.63;;
64235;SDS011;50564;47.402;9.740;2023-02-14T19:05:49;78.28;;;38.25;;
64235;SDS011;50564;47.402;9.740;2023-02-14T19:10:52;67.72;;;32.25;;
64235;SDS011;50564;47.402;9.740;2023-02-14T19:15:54;63.83;;;30.52;;
64235;SDS011;50564;47.402;9.740;2023-02-14T19:21:06;57.50;;;29.90;;
64235;SDS011;50564;47.402;9.740;2023-02-14T19:26:12;54.15;;;29.35;;
64235;SDS011;50564;47.402;9.740;2023-02-14T19:31:16;74.15;;;28.23;;
64235;SDS011;50564;47.402;9.740;2023-02-14T19:36:18;75.05;;;38.10;;
64235;SDS011;50564;47.402;9.740;2023-02-14T19:41:28;108.65;;;48.65;;
64235;SDS011;50564;47.402;9.740;2023-02-14T19:46:31;79.40;;;43.67;;
64235;SDS011;50564;47.402;9.740;2023-02-14T19:51:34;88.72;;;49.10;;
64235;SDS011;50564;47.402;9.740;2023-02-14T19:56:36;94.25;;;43.80;;
64235;SDS011;50564;47.402;9.740;2023-02-14T20:01:40;88.65;;;43.65;;
64235;SDS011;50564;47.402;9.740;2023-02-14T20:06:46;96.03;;;42.40;;
64235;SDS011;50564;47.402;9.740;2023-02-14T20:11:50;78.45;;;38.80;;
64235;SDS011;50564;47.402;9.740;2023-02-14T20:16:54;72.35;;;39.25;;
64235;SDS011;50564;47.402;9.740;2023-02-14T20:21:57;69.88;;;36.60;;
64235;SDS011;50564;47.402;9.740;2023-02-14T20:26:59;76.50;;;35.22;;
64235;SDS011;50564;47.402;9.740;2023-02-14T20:32:01;110.10;;;36.85;;
64235;SDS011;50564;47.402;9.740;2023-02-14T20:37:04;66.55;;;30.83;;
64235;SDS011;50564;47.402;9.740;2023-02-14T20:42:09;64.30;;;29.52;;
64235;SDS011;50564;47.402;9.740;2023-02-14T20:47:12;109.55;;;33.97;;
64235;SDS011;50564;47.402;9.740;2023-02-14T20:52:13;71.85;;;33.67;;
64235;SDS011;50564;47.402;9.740;2023-02-14T20:57:17;70.35;;;35.10;;
64235;SDS011;50564;47.402;9.740;2023-02-14T21:02:18;62.88;;;29.80;;
64235;SDS011;50564;47.402;9.740;2023-02-14T21:07:20;42.88;;;23.73;;
64235;SDS011;50564;47.402;9.740;2023-02-14T21:12:22;51.20;;;26.35;;
64235;SDS011;50564;47.402;9.740;2023-02-14T21:17:23;61.38;;;27.45;;
64235;SDS011;50564;47.402;9.740;2023-02-14T21:22:27;75.45;;;29.10;;
64235;SDS011;50564;47.402;9.740;2023-02-14T21:27:28;55.67;;;29.52;;
64235;SDS011;50564;47.402;9.740;2023-02-14T21:32:31;42.50;;;25.10;;
64235;SDS011;50564;47.402;9.740;2023-02-14T21:37:33;65.13;;;30.48;;
64235;SDS011;50564;47.402;9.740;2023-02-14T21:42:34;63.53;;;31.90;;
64235;SDS011;50564;47.402;9.740;2023-02-14T21:47:36;52.30;;;30.05;;
64235;SDS011;50564;47.402;9.740;2023-02-14T21:52:39;48.17;;;26.88;;
64235;SDS011;50564;47.402;9.740;2023-02-14T21:57:40;55.72;;;29.98;;
64235;SDS011;50564;47.402;9.740;2023-02-14T22:02:41;51.33;;;28.05;;
64235;SDS011;50564;47.402;9.740;2023-02-14T22:07:42;43.45;;;24.35;;
64235;SDS011;50564;47.402;9.740;2023-02-14T22:12:43;58.13;;;29.35;;
64235;SDS011;50564;47.402;9.740;2023-02-14T22:17:46;43.95;;;25.50;;
64235;SDS011;50564;47.402;9.740;2023-02-14T22:22:47;53.00;;;28.38;;
64235;SDS011;50564;47.402;9.740;2023-02-14T22:27:47;45.45;;;27.05;;
64235;SDS011;50564;47.402;9.740;2023-02-14T22:32:48;37.67;;;22.60;;
64235;SDS011;50564;47.402;9.740;2023-02-14T22:37:49;35.78;;;21.10;;
64235;SDS011;50564;47.402;9.740;2023-02-14T22:42:51;40.60;;;23.00;;
64235;SDS011;50564;47.402;9.740;2023-02-14T22:47:52;40.17;;;23.08;;
64235;SDS011;50564;47.402;9.740;2023-02-14T22:52:52;52.53;;;23.50;;
64235;SDS011;50564;47.402;9.740;2023-02-14T22:57:54;32.63;;;19.92;;
64235;SDS011;50564;47.402;9.740;2023-02-14T23:02:55;33.95;;;20.50;;
64235;SDS011;50564;47.402;9.740;2023-02-14T23:07:55;37.80;;;21.45;;
64235;SDS011;50564;47.402;9.740;2023-02-14T23:12:56;34.25;;;20.30;;
64235;SDS011;50564;47.402;9.740;2023-02-14T23:18:15;34.63;;;21.17;;
64235;SDS011;50564;47.402;9.740;2023-02-14T23:23:36;49.45;;;23.70;;
64235;SDS011;50564;47.402;9.740;2023-02-14T23:28:36;41.95;;;21.48;;
64235;SDS011;50564;47.402;9.740;2023-02-14T23:33:37;42.90;;;22.88;;
64235;SDS011;50564;47.402;9.740;2023-02-14T23:38:38;39.70;;;22.38;;
64235;SDS011;50564;47.402;9.740;2023-02-14T23:43:38;39.75;;;22.17;;
64235;SDS011;50564;47.402;9.740;2023-02-14T23:48:39;40.15;;;23.23;;
64235;SDS011;50564;47.402;9.740;2023-02-14T23:53:39;28.25;;;18.30;;
64235;SDS011;50564;47.402;9.740;2023-02-14T23:58:40;30.63;;;18.88;;
